EWN weather

Coastal Carolina Regional Airport
New Bern, North Carolina, United States

Public forecast

Using degrees Fahrenheit for public forecast. Weather courtesy of forecast.io.

Current aviation weather report (METAR) for Coastal Carolina Regional Airport

Retrieved 2019/10/18 01:54 UTC (59 minutes ago):

KEWN 180154Z AUTO 20003KT 10SM CLR 11/07 A2989 RMK AO2 SLP119 T01060067

Aviation forecast (TAF) for Coastal Carolina Regional Airport

Retrieved 2019-10-18 00:30 UTC (2 hours ago):

TAF KEWN 172329Z 1800/1824 33005KT P6SM SKC TEMPO 1808/1812 3SM BR